sensor_id;sensor_type;location;lat;lon;timestamp;P1;durP1;ratioP1;P2;durP2;ratioP2
22439;SDS011;11387;51.612;7.210;2023-03-19T00:01:09;17.13;;;7.10;;
22439;SDS011;11387;51.612;7.210;2023-03-19T00:03:37;15.32;;;7.00;;
22439;SDS011;11387;51.612;7.210;2023-03-19T00:06:07;12.20;;;5.65;;
22439;SDS011;11387;51.612;7.210;2023-03-19T00:08:36;13.20;;;6.35;;
22439;SDS011;11387;51.612;7.210;2023-03-19T00:11:04;11.57;;;5.65;;
22439;SDS011;11387;51.612;7.210;2023-03-19T00:13:34;15.35;;;6.50;;
22439;SDS011;11387;51.612;7.210;2023-03-19T00:16:02;12.63;;;5.47;;
22439;SDS011;11387;51.612;7.210;2023-03-19T00:18:32;12.18;;;5.95;;
22439;SDS011;11387;51.612;7.210;2023-03-19T00:21:00;15.55;;;7.00;;
22439;SDS011;11387;51.612;7.210;2023-03-19T00:23:30;14.85;;;5.70;;
22439;SDS011;11387;51.612;7.210;2023-03-19T00:25:59;14.80;;;6.30;;
22439;SDS011;11387;51.612;7.210;2023-03-19T00:28:28;13.05;;;6.82;;
22439;SDS011;11387;51.612;7.210;2023-03-19T00:30:56;11.10;;;6.38;;
22439;SDS011;11387;51.612;7.210;2023-03-19T00:33:25;25.42;;;7.00;;
22439;SDS011;11387;51.612;7.210;2023-03-19T00:35:54;17.60;;;6.97;;
22439;SDS011;11387;51.612;7.210;2023-03-19T00:38:24;15.48;;;7.30;;
22439;SDS011;11387;51.612;7.210;2023-03-19T00:40:53;12.25;;;7.82;;
22439;SDS011;11387;51.612;7.210;2023-03-19T00:43:22;13.38;;;7.68;;
22439;SDS011;11387;51.612;7.210;2023-03-19T00:45:50;12.07;;;7.20;;
22439;SDS011;11387;51.612;7.210;2023-03-19T00:48:19;15.07;;;6.15;;
22439;SDS011;11387;51.612;7.210;2023-03-19T00:50:48;13.00;;;5.47;;
22439;SDS011;11387;51.612;7.210;2023-03-19T00:53:16;17.08;;;6.45;;
22439;SDS011;11387;51.612;7.210;2023-03-19T00:55:45;12.70;;;5.43;;
22439;SDS011;11387;51.612;7.210;2023-03-19T00:58:15;9.93;;;5.05;;
22439;SDS011;11387;51.612;7.210;2023-03-19T01:00:43;11.23;;;5.82;;
22439;SDS011;11387;51.612;7.210;2023-03-19T01:03:12;11.00;;;4.78;;
22439;SDS011;11387;51.612;7.210;2023-03-19T01:05:40;12.57;;;4.88;;
22439;SDS011;11387;51.612;7.210;2023-03-19T01:08:09;11.18;;;6.32;;
22439;SDS011;11387;51.612;7.210;2023-03-19T01:10:37;26.23;;;6.63;;
22439;SDS011;11387;51.612;7.210;2023-03-19T01:13:07;14.15;;;5.90;;
22439;SDS011;11387;51.612;7.210;2023-03-19T01:15:37;13.70;;;6.43;;
22439;SDS011;11387;51.612;7.210;2023-03-19T01:18:06;18.65;;;6.95;;
22439;SDS011;11387;51.612;7.210;2023-03-19T01:20:36;12.82;;;6.28;;
22439;SDS011;11387;51.612;7.210;2023-03-19T01:23:06;12.25;;;6.43;;
22439;SDS011;11387;51.612;7.210;2023-03-19T01:25:35;13.48;;;6.25;;
22439;SDS011;11387;51.612;7.210;2023-03-19T01:28:06;14.35;;;6.80;;
22439;SDS011;11387;51.612;7.210;2023-03-19T01:30:36;14.77;;;6.50;;
22439;SDS011;11387;51.612;7.210;2023-03-19T01:33:07;15.35;;;7.78;;
22439;SDS011;11387;51.612;7.210;2023-03-19T01:35:35;20.48;;;7.93;;
22439;SDS011;11387;51.612;7.210;2023-03-19T01:38:04;15.27;;;7.90;;
22439;SDS011;11387;51.612;7.210;2023-03-19T01:40:34;15.80;;;8.02;;
22439;SDS011;11387;51.612;7.210;2023-03-19T01:43:12;16.85;;;7.85;;
22439;SDS011;11387;51.612;7.210;2023-03-19T01:45:47;14.75;;;7.78;;
22439;SDS011;11387;51.612;7.210;2023-03-19T01:48:19;18.63;;;7.63;;
22439;SDS011;11387;51.612;7.210;2023-03-19T01:50:54;14.40;;;6.88;;
22439;SDS011;11387;51.612;7.210;2023-03-19T01:53:25;13.13;;;7.85;;
22439;SDS011;11387;51.612;7.210;2023-03-19T01:55:58;12.75;;;7.60;;
22439;SDS011;11387;51.612;7.210;2023-03-19T01:58:31;19.88;;;7.50;;
22439;SDS011;11387;51.612;7.210;2023-03-19T02:01:01;17.45;;;8.00;;
22439;SDS011;11387;51.612;7.210;2023-03-19T02:03:30;16.48;;;8.35;;
22439;SDS011;11387;51.612;7.210;2023-03-19T02:06:00;16.55;;;8.45;;
22439;SDS011;11387;51.612;7.210;2023-03-19T02:08:29;15.18;;;8.40;;
22439;SDS011;11387;51.612;7.210;2023-03-19T02:10:59;16.67;;;7.80;;
22439;SDS011;11387;51.612;7.210;2023-03-19T02:13:28;17.95;;;7.32;;
22439;SDS011;11387;51.612;7.210;2023-03-19T02:15:56;14.60;;;8.40;;
22439;SDS011;11387;51.612;7.210;2023-03-19T02:18:26;19.10;;;7.68;;
22439;SDS011;11387;51.612;7.210;2023-03-19T02:20:56;13.68;;;7.72;;
22439;SDS011;11387;51.612;7.210;2023-03-19T02:23:34;14.15;;;7.90;;
22439;SDS011;11387;51.612;7.210;2023-03-19T02:26:09;20.42;;;8.20;;
22439;SDS011;11387;51.612;7.210;2023-03-19T02:28:40;25.33;;;9.35;;
22439;SDS011;11387;51.612;7.210;2023-03-19T02:31:11;12.88;;;8.40;;
22439;SDS011;11387;51.612;7.210;2023-03-19T02:33:40;17.35;;;8.85;;
22439;SDS011;11387;51.612;7.210;2023-03-19T02:36:09;14.40;;;9.32;;
22439;SDS011;11387;51.612;7.210;2023-03-19T02:38:42;16.15;;;8.43;;
22439;SDS011;11387;51.612;7.210;2023-03-19T02:41:15;16.95;;;8.80;;
22439;SDS011;11387;51.612;7.210;2023-03-19T02:43:44;14.98;;;8.23;;
22439;SDS011;11387;51.612;7.210;2023-03-19T02:46:15;12.07;;;9.02;;
22439;SDS011;11387;51.612;7.210;2023-03-19T02:48:43;18.08;;;9.15;;
22439;SDS011;11387;51.612;7.210;2023-03-19T02:51:12;14.98;;;8.68;;
22439;SDS011;11387;51.612;7.210;2023-03-19T02:53:40;15.13;;;9.13;;
22439;SDS011;11387;51.612;7.210;2023-03-19T02:56:09;15.80;;;8.70;;
22439;SDS011;11387;51.612;7.210;2023-03-19T02:58:39;15.68;;;9.80;;
22439;SDS011;11387;51.612;7.210;2023-03-19T03:01:07;15.32;;;9.60;;
22439;SDS011;11387;51.612;7.210;2023-03-19T03:03:36;14.95;;;9.50;;
22439;SDS011;11387;51.612;7.210;2023-03-19T03:06:05;19.05;;;9.77;;
22439;SDS011;11387;51.612;7.210;2023-03-19T03:08:34;16.77;;;9.27;;
22439;SDS011;11387;51.612;7.210;2023-03-19T03:11:02;15.65;;;9.88;;
22439;SDS011;11387;51.612;7.210;2023-03-19T03:13:31;18.85;;;10.10;;
22439;SDS011;11387;51.612;7.210;2023-03-19T03:16:01;14.25;;;10.45;;
22439;SDS011;11387;51.612;7.210;2023-03-19T03:18:29;19.77;;;10.05;;
22439;SDS011;11387;51.612;7.210;2023-03-19T03:20:58;15.68;;;10.43;;
22439;SDS011;11387;51.612;7.210;2023-03-19T03:23:27;16.58;;;9.90;;
22439;SDS011;11387;51.612;7.210;2023-03-19T03:25:56;18.55;;;9.45;;
22439;SDS011;11387;51.612;7.210;2023-03-19T03:28:25;17.58;;;9.43;;
22439;SDS011;11387;51.612;7.210;2023-03-19T03:30:56;15.80;;;9.15;;
22439;SDS011;11387;51.612;7.210;2023-03-19T03:33:27;17.30;;;9.85;;
22439;SDS011;11387;51.612;7.210;2023-03-19T03:35:56;19.42;;;10.40;;
22439;SDS011;11387;51.612;7.210;2023-03-19T03:38:25;17.77;;;10.30;;
22439;SDS011;11387;51.612;7.210;2023-03-19T03:40:53;21.67;;;9.95;;
22439;SDS011;11387;51.612;7.210;2023-03-19T03:43:22;11.57;;;8.82;;
22439;SDS011;11387;51.612;7.210;2023-03-19T03:45:50;20.30;;;9.80;;
22439;SDS011;11387;51.612;7.210;2023-03-19T03:48:19;14.75;;;10.07;;
22439;SDS011;11387;51.612;7.210;2023-03-19T03:50:49;19.45;;;10.48;;
22439;SDS011;11387;51.612;7.210;2023-03-19T03:53:18;19.95;;;9.20;;
22439;SDS011;11387;51.612;7.210;2023-03-19T03:55:46;13.73;;;8.98;;
22439;SDS011;11387;51.612;7.210;2023-03-19T03:58:18;17.70;;;8.27;;
22439;SDS011;11387;51.612;7.210;2023-03-19T04:00:46;20.17;;;10.43;;
22439;SDS011;11387;51.612;7.210;2023-03-19T04:03:15;18.67;;;9.68;;
22439;SDS011;11387;51.612;7.210;2023-03-19T04:05:44;14.73;;;9.07;;
22439;SDS011;11387;51.612;7.210;2023-03-19T04:08:14;16.40;;;8.52;;
22439;SDS011;11387;51.612;7.210;2023-03-19T04:10:43;14.27;;;8.90;;
22439;SDS011;11387;51.612;7.210;2023-03-19T04:13:11;19.63;;;9.18;;
22439;SDS011;11387;51.612;7.210;2023-03-19T04:15:41;12.43;;;7.70;;
22439;SDS011;11387;51.612;7.210;2023-03-19T04:18:10;15.18;;;8.70;;
22439;SDS011;11387;51.612;7.210;2023-03-19T04:20:38;14.05;;;8.70;;
22439;SDS011;11387;51.612;7.210;2023-03-19T04:23:07;16.83;;;9.30;;
22439;SDS011;11387;51.612;7.210;2023-03-19T04:25:39;15.90;;;8.32;;
22439;SDS011;11387;51.612;7.210;2023-03-19T04:28:07;12.43;;;7.90;;
22439;SDS011;11387;51.612;7.210;2023-03-19T04:30:39;15.02;;;8.43;;
22439;SDS011;11387;51.612;7.210;2023-03-19T04:33:09;11.88;;;7.47;;
22439;SDS011;11387;51.612;7.210;2023-03-19T04:35:39;13.07;;;8.13;;
22439;SDS011;11387;51.612;7.210;2023-03-19T04:38:07;19.63;;;8.25;;
22439;SDS011;11387;51.612;7.210;2023-03-19T04:40:36;18.48;;;8.07;;
22439;SDS011;11387;51.612;7.210;2023-03-19T04:43:06;12.32;;;7.63;;
22439;SDS011;11387;51.612;7.210;2023-03-19T04:45:34;12.20;;;7.55;;
22439;SDS011;11387;51.612;7.210;2023-03-19T04:48:02;15.32;;;6.70;;
22439;SDS011;11387;51.612;7.210;2023-03-19T04:50:31;10.85;;;7.00;;
22439;SDS011;11387;51.612;7.210;2023-03-19T04:53:01;18.20;;;7.40;;
22439;SDS011;11387;51.612;7.210;2023-03-19T04:55:29;15.35;;;6.97;;
22439;SDS011;11387;51.612;7.210;2023-03-19T04:57:58;14.32;;;6.97;;
22439;SDS011;11387;51.612;7.210;2023-03-19T05:00:28;14.40;;;7.57;;
22439;SDS011;11387;51.612;7.210;2023-03-19T05:02:57;17.35;;;8.05;;
22439;SDS011;11387;51.612;7.210;2023-03-19T05:05:26;18.55;;;9.52;;
22439;SDS011;11387;51.612;7.210;2023-03-19T05:07:54;11.85;;;7.05;;
22439;SDS011;11387;51.612;7.210;2023-03-19T05:10:23;14.32;;;7.40;;
22439;SDS011;11387;51.612;7.210;2023-03-19T05:12:51;11.25;;;5.53;;
22439;SDS011;11387;51.612;7.210;2023-03-19T05:15:20;14.45;;;7.35;;
22439;SDS011;11387;51.612;7.210;2023-03-19T05:17:50;12.18;;;7.50;;
22439;SDS011;11387;51.612;7.210;2023-03-19T05:20:18;15.20;;;6.82;;
22439;SDS011;11387;51.612;7.210;2023-03-19T05:22:47;10.60;;;7.60;;
22439;SDS011;11387;51.612;7.210;2023-03-19T05:25:15;13.23;;;6.47;;
22439;SDS011;11387;51.612;7.210;2023-03-19T05:27:45;14.82;;;6.78;;
22439;SDS011;11387;51.612;7.210;2023-03-19T05:30:13;10.32;;;6.10;;
22439;SDS011;11387;51.612;7.210;2023-03-19T05:32:44;9.60;;;5.53;;
22439;SDS011;11387;51.612;7.210;2023-03-19T05:35:14;11.95;;;5.65;;
22439;SDS011;11387;51.612;7.210;2023-03-19T05:37:43;8.77;;;4.97;;
22439;SDS011;11387;51.612;7.210;2023-03-19T05:40:12;13.40;;;5.55;;
22439;SDS011;11387;51.612;7.210;2023-03-19T05:42:40;11.55;;;5.47;;
22439;SDS011;11387;51.612;7.210;2023-03-19T05:45:09;7.03;;;4.65;;
22439;SDS011;11387;51.612;7.210;2023-03-19T05:47:38;10.98;;;5.85;;
22439;SDS011;11387;51.612;7.210;2023-03-19T05:50:09;9.57;;;5.68;;
22439;SDS011;11387;51.612;7.210;2023-03-19T05:52:40;15.32;;;6.35;;
22439;SDS011;11387;51.612;7.210;2023-03-19T05:55:08;12.48;;;5.15;;
22439;SDS011;11387;51.612;7.210;2023-03-19T05:57:37;7.72;;;4.75;;
22439;SDS011;11387;51.612;7.210;2023-03-19T06:00:06;10.00;;;5.75;;
22439;SDS011;11387;51.612;7.210;2023-03-19T06:02:35;12.57;;;6.07;;
22439;SDS011;11387;51.612;7.210;2023-03-19T06:05:04;11.70;;;6.70;;
22439;SDS011;11387;51.612;7.210;2023-03-19T06:07:34;12.98;;;6.93;;
22439;SDS011;11387;51.612;7.210;2023-03-19T06:10:05;10.60;;;7.10;;
22439;SDS011;11387;51.612;7.210;2023-03-19T06:12:34;11.18;;;6.40;;
22439;SDS011;11387;51.612;7.210;2023-03-19T06:15:03;16.75;;;6.57;;
22439;SDS011;11387;51.612;7.210;2023-03-19T06:17:32;15.43;;;7.30;;
22439;SDS011;11387;51.612;7.210;2023-03-19T06:20:01;11.63;;;6.28;;
22439;SDS011;11387;51.612;7.210;2023-03-19T06:22:30;18.20;;;8.52;;
22439;SDS011;11387;51.612;7.210;2023-03-19T06:24:58;14.07;;;6.90;;
22439;SDS011;11387;51.612;7.210;2023-03-19T06:27:28;13.57;;;6.75;;
22439;SDS011;11387;51.612;7.210;2023-03-19T06:29:57;10.32;;;6.97;;
22439;SDS011;11387;51.612;7.210;2023-03-19T06:32:25;12.45;;;7.57;;
22439;SDS011;11387;51.612;7.210;2023-03-19T06:34:54;13.60;;;7.75;;
22439;SDS011;11387;51.612;7.210;2023-03-19T06:37:22;13.98;;;7.78;;
22439;SDS011;11387;51.612;7.210;2023-03-19T06:39:51;13.55;;;7.25;;
22439;SDS011;11387;51.612;7.210;2023-03-19T06:42:20;16.95;;;8.52;;
22439;SDS011;11387;51.612;7.210;2023-03-19T06:44:50;15.10;;;8.18;;
22439;SDS011;11387;51.612;7.210;2023-03-19T06:47:19;14.25;;;8.77;;
22439;SDS011;11387;51.612;7.210;2023-03-19T06:49:48;16.45;;;8.73;;
22439;SDS011;11387;51.612;7.210;2023-03-19T06:52:17;16.00;;;9.15;;
22439;SDS011;11387;51.612;7.210;2023-03-19T06:54:45;17.67;;;9.68;;
22439;SDS011;11387;51.612;7.210;2023-03-19T06:57:14;17.88;;;9.50;;
22439;SDS011;11387;51.612;7.210;2023-03-19T06:59:42;16.10;;;10.45;;
22439;SDS011;11387;51.612;7.210;2023-03-19T07:02:12;17.77;;;9.88;;
22439;SDS011;11387;51.612;7.210;2023-03-19T07:04:41;18.90;;;11.18;;
22439;SDS011;11387;51.612;7.210;2023-03-19T07:07:10;23.20;;;10.65;;
22439;SDS011;11387;51.612;7.210;2023-03-19T07:09:38;14.98;;;10.30;;
22439;SDS011;11387;51.612;7.210;2023-03-19T07:12:07;20.55;;;11.02;;
22439;SDS011;11387;51.612;7.210;2023-03-19T07:14:36;20.20;;;10.77;;
22439;SDS011;11387;51.612;7.210;2023-03-19T07:17:05;16.80;;;10.43;;
22439;SDS011;11387;51.612;7.210;2023-03-19T07:19:37;17.23;;;9.25;;
22439;SDS011;11387;51.612;7.210;2023-03-19T07:22:06;17.30;;;10.00;;
22439;SDS011;11387;51.612;7.210;2023-03-19T07:24:34;16.60;;;10.18;;
22439;SDS011;11387;51.612;7.210;2023-03-19T07:27:03;15.23;;;10.55;;
22439;SDS011;11387;51.612;7.210;2023-03-19T07:29:32;23.27;;;11.30;;
22439;SDS011;11387;51.612;7.210;2023-03-19T07:32:00;13.32;;;9.38;;
22439;SDS011;11387;51.612;7.210;2023-03-19T07:34:29;15.85;;;9.68;;
22439;SDS011;11387;51.612;7.210;2023-03-19T07:36:59;20.33;;;10.82;;
22439;SDS011;11387;51.612;7.210;2023-03-19T07:39:27;15.35;;;9.70;;
22439;SDS011;11387;51.612;7.210;2023-03-19T07:41:56;15.05;;;9.25;;
22439;SDS011;11387;51.612;7.210;2023-03-19T07:44:24;16.80;;;9.48;;
22439;SDS011;11387;51.612;7.210;2023-03-19T07:46:53;20.70;;;9.38;;
22439;SDS011;11387;51.612;7.210;2023-03-19T07:49:22;15.30;;;9.20;;
22439;SDS011;11387;51.612;7.210;2023-03-19T07:51:51;14.00;;;8.60;;
22439;SDS011;11387;51.612;7.210;2023-03-19T07:54:21;13.48;;;8.43;;
22439;SDS011;11387;51.612;7.210;2023-03-19T07:56:50;13.57;;;9.55;;
22439;SDS011;11387;51.612;7.210;2023-03-19T07:59:18;15.25;;;8.57;;
22439;SDS011;11387;51.612;7.210;2023-03-19T08:01:47;15.35;;;8.48;;
22439;SDS011;11387;51.612;7.210;2023-03-19T08:04:15;18.13;;;9.05;;
22439;SDS011;11387;51.612;7.210;2023-03-19T08:06:44;14.60;;;8.85;;
22439;SDS011;11387;51.612;7.210;2023-03-19T08:09:12;13.25;;;7.50;;
22439;SDS011;11387;51.612;7.210;2023-03-19T08:11:42;12.70;;;7.60;;
22439;SDS011;11387;51.612;7.210;2023-03-19T08:14:11;13.15;;;8.65;;
22439;SDS011;11387;51.612;7.210;2023-03-19T08:16:40;17.83;;;8.57;;
22439;SDS011;11387;51.612;7.210;2023-03-19T08:19:11;11.63;;;7.32;;
22439;SDS011;11387;51.612;7.210;2023-03-19T08:21:40;12.85;;;7.22;;
22439;SDS011;11387;51.612;7.210;2023-03-19T08:24:23;13.43;;;8.55;;
22439;SDS011;11387;51.612;7.210;2023-03-19T08:26:53;10.75;;;7.45;;
22439;SDS011;11387;51.612;7.210;2023-03-19T08:29:22;14.85;;;8.48;;
22439;SDS011;11387;51.612;7.210;2023-03-19T08:31:52;11.05;;;7.38;;
22439;SDS011;11387;51.612;7.210;2023-03-19T08:34:22;13.50;;;8.30;;
22439;SDS011;11387;51.612;7.210;2023-03-19T08:36:50;10.98;;;8.13;;
22439;SDS011;11387;51.612;7.210;2023-03-19T08:39:19;12.15;;;8.05;;
22439;SDS011;11387;51.612;7.210;2023-03-19T08:41:48;12.48;;;8.15;;
22439;SDS011;11387;51.612;7.210;2023-03-19T08:44:18;8.52;;;7.43;;
22439;SDS011;11387;51.612;7.210;2023-03-19T08:46:47;13.05;;;7.95;;
22439;SDS011;11387;51.612;7.210;2023-03-19T08:49:15;12.40;;;8.02;;
22439;SDS011;11387;51.612;7.210;2023-03-19T08:51:44;12.38;;;8.30;;
22439;SDS011;11387;51.612;7.210;2023-03-19T08:54:12;13.20;;;8.15;;
22439;SDS011;11387;51.612;7.210;2023-03-19T08:56:41;19.92;;;8.38;;
22439;SDS011;11387;51.612;7.210;2023-03-19T08:59:09;10.98;;;8.35;;
22439;SDS011;11387;51.612;7.210;2023-03-19T09:01:39;11.50;;;8.93;;
22439;SDS011;11387;51.612;7.210;2023-03-19T09:04:07;14.15;;;7.47;;
22439;SDS011;11387;51.612;7.210;2023-03-19T09:06:36;9.40;;;6.88;;
22439;SDS011;11387;51.612;7.210;2023-03-19T09:09:05;12.90;;;7.57;;
22439;SDS011;11387;51.612;7.210;2023-03-19T09:11:33;10.75;;;7.43;;
22439;SDS011;11387;51.612;7.210;2023-03-19T09:14:02;12.68;;;8.00;;
22439;SDS011;11387;51.612;7.210;2023-03-19T09:16:30;12.65;;;7.13;;
22439;SDS011;11387;51.612;7.210;2023-03-19T09:19:00;9.25;;;6.78;;
22439;SDS011;11387;51.612;7.210;2023-03-19T09:21:29;12.48;;;8.10;;
22439;SDS011;11387;51.612;7.210;2023-03-19T09:23:58;10.38;;;7.50;;
22439;SDS011;11387;51.612;7.210;2023-03-19T09:26:27;12.18;;;6.95;;
22439;SDS011;11387;51.612;7.210;2023-03-19T09:28:55;8.48;;;6.50;;
22439;SDS011;11387;51.612;7.210;2023-03-19T09:31:25;9.77;;;6.65;;
22439;SDS011;11387;51.612;7.210;2023-03-19T09:33:56;7.72;;;5.22;;
22439;SDS011;11387;51.612;7.210;2023-03-19T09:36:26;11.60;;;6.55;;
22439;SDS011;11387;51.612;7.210;2023-03-19T09:38:54;11.85;;;6.22;;
22439;SDS011;11387;51.612;7.210;2023-03-19T09:41:26;10.05;;;6.30;;
22439;SDS011;11387;51.612;7.210;2023-03-19T09:44:00;10.55;;;6.35;;
22439;SDS011;11387;51.612;7.210;2023-03-19T09:46:31;8.43;;;6.00;;
22439;SDS011;11387;51.612;7.210;2023-03-19T09:49:09;9.57;;;6.05;;
22439;SDS011;11387;51.612;7.210;2023-03-19T09:51:47;11.75;;;6.80;;
22439;SDS011;11387;51.612;7.210;2023-03-19T09:54:25;5.93;;;4.88;;
22439;SDS011;11387;51.612;7.210;2023-03-19T09:56:56;6.40;;;4.85;;
22439;SDS011;11387;51.612;7.210;2023-03-19T09:59:25;6.28;;;4.50;;
22439;SDS011;11387;51.612;7.210;2023-03-19T10:02:00;4.95;;;4.07;;
22439;SDS011;11387;51.612;7.210;2023-03-19T10:04:47;9.60;;;5.13;;
22439;SDS011;11387;51.612;7.210;2023-03-19T10:07:32;6.53;;;4.45;;
22439;SDS011;11387;51.612;7.210;2023-03-19T10:10:18;6.93;;;4.78;;
22439;SDS011;11387;51.612;7.210;2023-03-19T10:13:01;7.22;;;5.40;;
22439;SDS011;11387;51.612;7.210;2023-03-19T10:15:40;8.27;;;5.15;;
22439;SDS011;11387;51.612;7.210;2023-03-19T10:18:13;10.70;;;4.65;;
22439;SDS011;11387;51.612;7.210;2023-03-19T10:20:45;8.02;;;5.32;;
22439;SDS011;11387;51.612;7.210;2023-03-19T10:23:25;7.95;;;4.07;;
22439;SDS011;11387;51.612;7.210;2023-03-19T10:26:05;6.65;;;4.13;;
22439;SDS011;11387;51.612;7.210;2023-03-19T10:28:38;5.70;;;4.30;;
22439;SDS011;11387;51.612;7.210;2023-03-19T10:31:17;7.55;;;3.85;;
22439;SDS011;11387;51.612;7.210;2023-03-19T10:33:58;6.60;;;4.03;;
22439;SDS011;11387;51.612;7.210;2023-03-19T10:36:39;5.15;;;4.07;;
22439;SDS011;11387;51.612;7.210;2023-03-19T10:39:09;6.22;;;3.80;;
22439;SDS011;11387;51.612;7.210;2023-03-19T10:41:43;6.63;;;3.72;;
22439;SDS011;11387;51.612;7.210;2023-03-19T10:44:23;7.13;;;3.83;;
22439;SDS011;11387;51.612;7.210;2023-03-19T10:46:56;5.63;;;4.10;;
22439;SDS011;11387;51.612;7.210;2023-03-19T10:49:26;4.43;;;3.22;;
22439;SDS011;11387;51.612;7.210;2023-03-19T10:51:55;6.68;;;3.85;;
22439;SDS011;11387;51.612;7.210;2023-03-19T10:54:26;6.97;;;3.88;;
22439;SDS011;11387;51.612;7.210;2023-03-19T10:56:57;6.70;;;3.25;;
22439;SDS011;11387;51.612;7.210;2023-03-19T10:59:30;6.65;;;4.25;;
22439;SDS011;11387;51.612;7.210;2023-03-19T11:02:01;5.55;;;3.13;;
22439;SDS011;11387;51.612;7.210;2023-03-19T11:04:40;5.10;;;3.33;;
22439;SDS011;11387;51.612;7.210;2023-03-19T11:07:10;7.40;;;3.42;;
22439;SDS011;11387;51.612;7.210;2023-03-19T11:09:43;5.50;;;3.45;;
22439;SDS011;11387;51.612;7.210;2023-03-19T11:12:15;5.07;;;2.95;;
22439;SDS011;11387;51.612;7.210;2023-03-19T11:14:46;3.90;;;2.90;;
22439;SDS011;11387;51.612;7.210;2023-03-19T11:17:20;6.35;;;3.67;;
22439;SDS011;11387;51.612;7.210;2023-03-19T11:19:52;6.53;;;4.35;;
22439;SDS011;11387;51.612;7.210;2023-03-19T11:22:22;7.88;;;3.15;;
22439;SDS011;11387;51.612;7.210;2023-03-19T11:24:55;3.78;;;2.60;;
22439;SDS011;11387;51.612;7.210;2023-03-19T11:27:28;4.25;;;2.80;;
22439;SDS011;11387;51.612;7.210;2023-03-19T11:29:58;3.78;;;2.28;;
22439;SDS011;11387;51.612;7.210;2023-03-19T11:32:32;4.82;;;2.80;;
22439;SDS011;11387;51.612;7.210;2023-03-19T11:35:24;3.55;;;2.15;;
22439;SDS011;11387;51.612;7.210;2023-03-19T11:37:57;3.42;;;2.20;;
22439;SDS011;11387;51.612;7.210;2023-03-19T11:40:33;5.30;;;2.10;;
22439;SDS011;11387;51.612;7.210;2023-03-19T11:46:15;2.70;;;2.00;;
22439;SDS011;11387;51.612;7.210;2023-03-19T11:51:55;3.45;;;2.10;;
22439;SDS011;11387;51.612;7.210;2023-03-19T11:54:31;5.88;;;2.05;;
22439;SDS011;11387;51.612;7.210;2023-03-19T11:57:09;2.90;;;1.55;;
22439;SDS011;11387;51.612;7.210;2023-03-19T11:59:46;3.33;;;1.90;;
22439;SDS011;11387;51.612;7.210;2023-03-19T12:02:31;5.38;;;2.33;;
22439;SDS011;11387;51.612;7.210;2023-03-19T12:05:23;2.97;;;1.55;;
22439;SDS011;11387;51.612;7.210;2023-03-19T12:08:08;3.17;;;1.50;;
22439;SDS011;11387;51.612;7.210;2023-03-19T12:10:51;3.10;;;1.90;;
22439;SDS011;11387;51.612;7.210;2023-03-19T12:13:33;2.63;;;1.77;;
22439;SDS011;11387;51.612;7.210;2023-03-19T12:16:13;3.83;;;1.58;;
22439;SDS011;11387;51.612;7.210;2023-03-19T12:19:03;2.83;;;1.48;;
22439;SDS011;11387;51.612;7.210;2023-03-19T12:24:26;2.05;;;1.08;;
22439;SDS011;11387;51.612;7.210;2023-03-19T12:27:10;3.67;;;1.70;;
22439;SDS011;11387;51.612;7.210;2023-03-19T12:29:53;3.88;;;1.92;;
22439;SDS011;11387;51.612;7.210;2023-03-19T12:32:36;3.47;;;2.08;;
22439;SDS011;11387;51.612;7.210;2023-03-19T12:35:21;4.15;;;2.58;;
22439;SDS011;11387;51.612;7.210;2023-03-19T12:37:57;8.18;;;2.85;;
22439;SDS011;11387;51.612;7.210;2023-03-19T12:40:31;7.43;;;3.50;;
22439;SDS011;11387;51.612;7.210;2023-03-19T12:43:05;6.68;;;4.75;;
22439;SDS011;11387;51.612;7.210;2023-03-19T12:45:53;7.38;;;5.30;;
22439;SDS011;11387;51.612;7.210;2023-03-19T12:48:27;9.18;;;5.20;;
22439;SDS011;11387;51.612;7.210;2023-03-19T12:51:00;9.05;;;5.38;;
22439;SDS011;11387;51.612;7.210;2023-03-19T12:53:34;11.27;;;7.25;;
22439;SDS011;11387;51.612;7.210;2023-03-19T12:56:12;8.38;;;5.28;;
22439;SDS011;11387;51.612;7.210;2023-03-19T12:58:49;5.32;;;3.78;;
22439;SDS011;11387;51.612;7.210;2023-03-19T13:04:00;5.93;;;3.10;;
22439;SDS011;11387;51.612;7.210;2023-03-19T13:06:34;6.90;;;4.35;;
22439;SDS011;11387;51.612;7.210;2023-03-19T13:09:06;5.60;;;4.07;;
22439;SDS011;11387;51.612;7.210;2023-03-19T13:11:43;8.02;;;4.65;;
22439;SDS011;11387;51.612;7.210;2023-03-19T13:14:16;6.22;;;4.50;;
22439;SDS011;11387;51.612;7.210;2023-03-19T13:16:51;6.90;;;4.68;;
22439;SDS011;11387;51.612;7.210;2023-03-19T13:19:28;7.38;;;4.82;;
22439;SDS011;11387;51.612;7.210;2023-03-19T13:21:59;8.45;;;5.82;;
22439;SDS011;11387;51.612;7.210;2023-03-19T13:24:33;6.68;;;5.20;;
22439;SDS011;11387;51.612;7.210;2023-03-19T13:27:06;7.45;;;5.40;;
22439;SDS011;11387;51.612;7.210;2023-03-19T13:29:58;7.38;;;5.85;;
22439;SDS011;11387;51.612;7.210;2023-03-19T13:32:34;9.32;;;6.72;;
22439;SDS011;11387;51.612;7.210;2023-03-19T13:35:12;8.57;;;6.07;;
22439;SDS011;11387;51.612;7.210;2023-03-19T13:37:54;12.73;;;7.40;;
22439;SDS011;11387;51.612;7.210;2023-03-19T13:40:39;8.40;;;6.50;;
22439;SDS011;11387;51.612;7.210;2023-03-19T13:43:22;9.23;;;5.93;;
22439;SDS011;11387;51.612;7.210;2023-03-19T13:49:24;15.60;;;7.18;;
22439;SDS011;11387;51.612;7.210;2023-03-19T13:52:12;10.68;;;7.13;;
22439;SDS011;11387;51.612;7.210;2023-03-19T13:55:22;14.73;;;7.15;;
22439;SDS011;11387;51.612;7.210;2023-03-19T13:58:09;11.35;;;6.68;;
22439;SDS011;11387;51.612;7.210;2023-03-19T14:01:04;12.32;;;7.18;;
22439;SDS011;11387;51.612;7.210;2023-03-19T14:03:33;10.05;;;6.70;;
22439;SDS011;11387;51.612;7.210;2023-03-19T14:06:11;9.23;;;6.22;;
22439;SDS011;11387;51.612;7.210;2023-03-19T14:09:06;9.77;;;7.43;;
22439;SDS011;11387;51.612;7.210;2023-03-19T14:12:22;9.57;;;6.22;;
22439;SDS011;11387;51.612;7.210;2023-03-19T14:14:58;9.15;;;6.72;;
22439;SDS011;11387;51.612;7.210;2023-03-19T14:17:31;8.73;;;6.97;;
22439;SDS011;11387;51.612;7.210;2023-03-19T14:20:20;11.40;;;6.95;;
22439;SDS011;11387;51.612;7.210;2023-03-19T14:23:16;9.90;;;6.90;;
22439;SDS011;11387;51.612;7.210;2023-03-19T14:25:55;8.43;;;6.13;;
22439;SDS011;11387;51.612;7.210;2023-03-19T14:28:32;6.80;;;5.10;;
22439;SDS011;11387;51.612;7.210;2023-03-19T14:31:04;8.30;;;5.72;;
22439;SDS011;11387;51.612;7.210;2023-03-19T14:33:36;9.38;;;6.63;;
22439;SDS011;11387;51.612;7.210;2023-03-19T14:36:12;7.35;;;5.22;;
22439;SDS011;11387;51.612;7.210;2023-03-19T14:38:45;10.15;;;5.05;;
22439;SDS011;11387;51.612;7.210;2023-03-19T14:41:19;7.93;;;4.68;;
22439;SDS011;11387;51.612;7.210;2023-03-19T14:43:54;6.40;;;4.20;;
22439;SDS011;11387;51.612;7.210;2023-03-19T14:46:41;6.18;;;4.00;;
22439;SDS011;11387;51.612;7.210;2023-03-19T14:49:27;5.47;;;3.85;;
22439;SDS011;11387;51.612;7.210;2023-03-19T14:52:33;6.72;;;4.25;;
22439;SDS011;11387;51.612;7.210;2023-03-19T14:55:09;7.18;;;4.82;;
22439;SDS011;11387;51.612;7.210;2023-03-19T14:57:40;7.07;;;4.70;;
22439;SDS011;11387;51.612;7.210;2023-03-19T15:00:12;6.97;;;4.90;;
22439;SDS011;11387;51.612;7.210;2023-03-19T15:02:44;8.02;;;4.70;;
22439;SDS011;11387;51.612;7.210;2023-03-19T15:05:17;7.65;;;4.68;;
22439;SDS011;11387;51.612;7.210;2023-03-19T15:07:52;9.82;;;5.60;;
22439;SDS011;11387;51.612;7.210;2023-03-19T15:10:25;8.68;;;5.38;;
22439;SDS011;11387;51.612;7.210;2023-03-19T15:13:04;11.27;;;6.47;;
22439;SDS011;11387;51.612;7.210;2023-03-19T15:15:57;7.82;;;5.75;;
22439;SDS011;11387;51.612;7.210;2023-03-19T15:18:37;9.18;;;6.35;;
22439;SDS011;11387;51.612;7.210;2023-03-19T15:21:07;9.70;;;5.70;;
22439;SDS011;11387;51.612;7.210;2023-03-19T15:23:36;7.03;;;5.35;;